sensor_id;sensor_type;location;lat;lon;timestamp;P1;durP1;ratioP1;P2;durP2;ratioP2
75847;SDS011;65750;47.540;19.090;2022-12-07T00:00:17;24.95;;;11.63;;
75847;SDS011;65750;47.540;19.090;2022-12-07T00:02:46;21.13;;;10.83;;
75847;SDS011;65750;47.540;19.090;2022-12-07T00:05:13;27.08;;;11.38;;
75847;SDS011;65750;47.540;19.090;2022-12-07T00:07:40;20.42;;;10.60;;
75847;SDS011;65750;47.540;19.090;2022-12-07T00:10:08;23.98;;;11.05;;
75847;SDS011;65750;47.540;19.090;2022-12-07T00:12:35;20.70;;;10.30;;
75847;SDS011;65750;47.540;19.090;2022-12-07T00:15:02;21.27;;;10.73;;
75847;SDS011;65750;47.540;19.090;2022-12-07T00:17:29;18.92;;;10.38;;
75847;SDS011;65750;47.540;19.090;2022-12-07T00:19:58;22.17;;;11.20;;
75847;SDS011;65750;47.540;19.090;2022-12-07T00:22:25;25.40;;;11.38;;
75847;SDS011;65750;47.540;19.090;2022-12-07T00:24:52;26.40;;;11.23;;
75847;SDS011;65750;47.540;19.090;2022-12-07T00:27:20;22.90;;;10.70;;
75847;SDS011;65750;47.540;19.090;2022-12-07T00:29:47;21.83;;;10.27;;
75847;SDS011;65750;47.540;19.090;2022-12-07T00:32:14;22.52;;;10.75;;
75847;SDS011;65750;47.540;19.090;2022-12-07T00:34:41;19.45;;;9.63;;
75847;SDS011;65750;47.540;19.090;2022-12-07T00:37:09;20.62;;;9.73;;
75847;SDS011;65750;47.540;19.090;2022-12-07T00:39:38;18.97;;;9.80;;
75847;SDS011;65750;47.540;19.090;2022-12-07T00:42:05;20.85;;;9.90;;
75847;SDS011;65750;47.540;19.090;2022-12-07T00:44:32;20.52;;;9.90;;
75847;SDS011;65750;47.540;19.090;2022-12-07T00:46:59;22.00;;;10.13;;
75847;SDS011;65750;47.540;19.090;2022-12-07T00:49:26;20.37;;;9.77;;
75847;SDS011;65750;47.540;19.090;2022-12-07T00:51:53;19.73;;;9.97;;
75847;SDS011;65750;47.540;19.090;2022-12-07T00:54:21;19.73;;;9.55;;
75847;SDS011;65750;47.540;19.090;2022-12-07T00:56:48;20.20;;;9.70;;
75847;SDS011;65750;47.540;19.090;2022-12-07T00:59:15;19.58;;;9.35;;
75847;SDS011;65750;47.540;19.090;2022-12-07T01:01:42;20.37;;;9.23;;
75847;SDS011;65750;47.540;19.090;2022-12-07T01:04:09;20.30;;;9.77;;
75847;SDS011;65750;47.540;19.090;2022-12-07T01:06:36;20.27;;;9.27;;
75847;SDS011;65750;47.540;19.090;2022-12-07T01:09:04;20.27;;;9.90;;
75847;SDS011;65750;47.540;19.090;2022-12-07T01:11:33;19.83;;;9.50;;
75847;SDS011;65750;47.540;19.090;2022-12-07T01:14:00;21.23;;;10.05;;
75847;SDS011;65750;47.540;19.090;2022-12-07T01:16:28;21.97;;;10.07;;
75847;SDS011;65750;47.540;19.090;2022-12-07T01:18:56;20.60;;;10.25;;
75847;SDS011;65750;47.540;19.090;2022-12-07T01:21:25;19.33;;;9.43;;
75847;SDS011;65750;47.540;19.090;2022-12-07T01:23:53;19.48;;;10.27;;
75847;SDS011;65750;47.540;19.090;2022-12-07T01:26:21;21.52;;;10.23;;
75847;SDS011;65750;47.540;19.090;2022-12-07T01:28:51;21.40;;;10.00;;
75847;SDS011;65750;47.540;19.090;2022-12-07T01:31:21;21.23;;;9.57;;
75847;SDS011;65750;47.540;19.090;2022-12-07T01:33:49;25.10;;;10.50;;
75847;SDS011;65750;47.540;19.090;2022-12-07T01:36:18;20.75;;;9.73;;
75847;SDS011;65750;47.540;19.090;2022-12-07T01:38:48;21.95;;;9.32;;
75847;SDS011;65750;47.540;19.090;2022-12-07T01:41:16;20.27;;;10.10;;
75847;SDS011;65750;47.540;19.090;2022-12-07T01:46:38;23.35;;;10.52;;
75847;SDS011;65750;47.540;19.090;2022-12-07T01:49:06;20.75;;;10.70;;
75847;SDS011;65750;47.540;19.090;2022-12-07T01:51:35;19.90;;;10.00;;
75847;SDS011;65750;47.540;19.090;2022-12-07T01:54:04;23.00;;;10.43;;
75847;SDS011;65750;47.540;19.090;2022-12-07T01:56:31;22.40;;;10.25;;
75847;SDS011;65750;47.540;19.090;2022-12-07T01:58:58;22.92;;;10.88;;
75847;SDS011;65750;47.540;19.090;2022-12-07T02:01:28;22.48;;;10.43;;
75847;SDS011;65750;47.540;19.090;2022-12-07T02:03:56;23.58;;;10.98;;
75847;SDS011;65750;47.540;19.090;2022-12-07T02:06:24;24.80;;;10.77;;
75847;SDS011;65750;47.540;19.090;2022-12-07T02:08:51;21.85;;;10.35;;
75847;SDS011;65750;47.540;19.090;2022-12-07T02:11:18;25.35;;;11.15;;
75847;SDS011;65750;47.540;19.090;2022-12-07T02:13:45;24.12;;;10.68;;
75847;SDS011;65750;47.540;19.090;2022-12-07T02:16:15;21.37;;;10.50;;
75847;SDS011;65750;47.540;19.090;2022-12-07T02:18:54;25.07;;;10.57;;
75847;SDS011;65750;47.540;19.090;2022-12-07T02:21:29;25.12;;;11.23;;
75847;SDS011;65750;47.540;19.090;2022-12-07T02:24:10;23.45;;;11.75;;
75847;SDS011;65750;47.540;19.090;2022-12-07T02:29:44;21.70;;;10.85;;
75847;SDS011;65750;47.540;19.090;2022-12-07T02:32:15;22.33;;;10.63;;
75847;SDS011;65750;47.540;19.090;2022-12-07T02:34:47;22.83;;;11.27;;
75847;SDS011;65750;47.540;19.090;2022-12-07T02:37:19;23.52;;;10.73;;
75847;SDS011;65750;47.540;19.090;2022-12-07T02:40:01;22.02;;;11.23;;
75847;SDS011;65750;47.540;19.090;2022-12-07T02:42:33;21.90;;;10.52;;
75847;SDS011;65750;47.540;19.090;2022-12-07T02:45:05;26.17;;;11.57;;
75847;SDS011;65750;47.540;19.090;2022-12-07T02:47:33;23.92;;;11.48;;
75847;SDS011;65750;47.540;19.090;2022-12-07T02:50:02;24.48;;;11.77;;
75847;SDS011;65750;47.540;19.090;2022-12-07T02:52:30;26.25;;;12.43;;
75847;SDS011;65750;47.540;19.090;2022-12-07T02:54:57;23.98;;;11.70;;
75847;SDS011;65750;47.540;19.090;2022-12-07T02:57:28;23.83;;;12.43;;
75847;SDS011;65750;47.540;19.090;2022-12-07T03:00:05;23.58;;;11.55;;
75847;SDS011;65750;47.540;19.090;2022-12-07T03:02:36;25.95;;;11.82;;
75847;SDS011;65750;47.540;19.090;2022-12-07T03:05:13;22.98;;;11.30;;
75847;SDS011;65750;47.540;19.090;2022-12-07T03:07:49;25.83;;;12.40;;
75847;SDS011;65750;47.540;19.090;2022-12-07T03:10:24;23.47;;;11.80;;
75847;SDS011;65750;47.540;19.090;2022-12-07T03:12:55;23.70;;;11.77;;
75847;SDS011;65750;47.540;19.090;2022-12-07T03:15:31;23.60;;;11.45;;
75847;SDS011;65750;47.540;19.090;2022-12-07T03:18:00;25.62;;;12.25;;
75847;SDS011;65750;47.540;19.090;2022-12-07T03:20:27;25.60;;;11.63;;
75847;SDS011;65750;47.540;19.090;2022-12-07T03:22:56;24.80;;;11.77;;
75847;SDS011;65750;47.540;19.090;2022-12-07T03:25:24;22.83;;;11.25;;
75847;SDS011;65750;47.540;19.090;2022-12-07T03:27:53;23.15;;;11.38;;
75847;SDS011;65750;47.540;19.090;2022-12-07T03:30:22;23.83;;;11.18;;
75847;SDS011;65750;47.540;19.090;2022-12-07T03:32:53;25.05;;;11.73;;
75847;SDS011;65750;47.540;19.090;2022-12-07T03:35:24;26.40;;;12.07;;
75847;SDS011;65750;47.540;19.090;2022-12-07T03:37:54;22.15;;;11.10;;
75847;SDS011;65750;47.540;19.090;2022-12-07T03:40:23;22.17;;;11.25;;
75847;SDS011;65750;47.540;19.090;2022-12-07T03:42:53;21.10;;;10.70;;
75847;SDS011;65750;47.540;19.090;2022-12-07T03:45:20;21.60;;;10.90;;
75847;SDS011;65750;47.540;19.090;2022-12-07T03:47:51;21.37;;;10.60;;
75847;SDS011;65750;47.540;19.090;2022-12-07T03:50:26;22.73;;;11.63;;
75847;SDS011;65750;47.540;19.090;2022-12-07T03:52:56;22.17;;;11.12;;
75847;SDS011;65750;47.540;19.090;2022-12-07T03:55:26;24.12;;;11.65;;
75847;SDS011;65750;47.540;19.090;2022-12-07T03:57:56;24.75;;;11.82;;
75847;SDS011;65750;47.540;19.090;2022-12-07T04:00:27;23.27;;;11.80;;
75847;SDS011;65750;47.540;19.090;2022-12-07T04:02:56;23.20;;;11.57;;
75847;SDS011;65750;47.540;19.090;2022-12-07T04:05:23;22.58;;;11.50;;
75847;SDS011;65750;47.540;19.090;2022-12-07T04:07:50;23.73;;;11.02;;
75847;SDS011;65750;47.540;19.090;2022-12-07T04:10:17;22.10;;;11.05;;
75847;SDS011;65750;47.540;19.090;2022-12-07T04:12:45;22.23;;;11.90;;
75847;SDS011;65750;47.540;19.090;2022-12-07T04:15:12;23.55;;;10.80;;
75847;SDS011;65750;47.540;19.090;2022-12-07T04:17:40;24.67;;;11.55;;
75847;SDS011;65750;47.540;19.090;2022-12-07T04:20:09;26.00;;;12.25;;
75847;SDS011;65750;47.540;19.090;2022-12-07T04:22:37;23.27;;;11.38;;
75847;SDS011;65750;47.540;19.090;2022-12-07T04:25:04;21.73;;;11.20;;
75847;SDS011;65750;47.540;19.090;2022-12-07T04:27:32;24.00;;;12.63;;
75847;SDS011;65750;47.540;19.090;2022-12-07T04:29:59;28.05;;;13.90;;
75847;SDS011;65750;47.540;19.090;2022-12-07T04:32:27;24.63;;;12.45;;
75847;SDS011;65750;47.540;19.090;2022-12-07T04:34:54;24.40;;;11.68;;
75847;SDS011;65750;47.540;19.090;2022-12-07T04:37:22;21.07;;;9.80;;
75847;SDS011;65750;47.540;19.090;2022-12-07T04:39:49;19.92;;;10.10;;
75847;SDS011;65750;47.540;19.090;2022-12-07T04:42:16;24.00;;;11.30;;
75847;SDS011;65750;47.540;19.090;2022-12-07T04:44:44;17.23;;;9.75;;
75847;SDS011;65750;47.540;19.090;2022-12-07T04:47:11;15.15;;;7.68;;
75847;SDS011;65750;47.540;19.090;2022-12-07T04:49:38;19.20;;;8.37;;
75847;SDS011;65750;47.540;19.090;2022-12-07T04:52:05;16.05;;;8.43;;
75847;SDS011;65750;47.540;19.090;2022-12-07T04:54:33;17.90;;;7.40;;
75847;SDS011;65750;47.540;19.090;2022-12-07T04:57:00;13.32;;;6.80;;
75847;SDS011;65750;47.540;19.090;2022-12-07T04:59:27;12.43;;;5.18;;
75847;SDS011;65750;47.540;19.090;2022-12-07T05:01:55;11.57;;;5.97;;
75847;SDS011;65750;47.540;19.090;2022-12-07T05:04:22;8.32;;;4.30;;
75847;SDS011;65750;47.540;19.090;2022-12-07T05:06:49;7.00;;;3.40;;
75847;SDS011;65750;47.540;19.090;2022-12-07T05:09:16;7.47;;;3.25;;
75847;SDS011;65750;47.540;19.090;2022-12-07T05:11:45;5.65;;;1.98;;
75847;SDS011;65750;47.540;19.090;2022-12-07T05:14:13;5.93;;;2.80;;
75847;SDS011;65750;47.540;19.090;2022-12-07T05:16:41;7.05;;;2.50;;
75847;SDS011;65750;47.540;19.090;2022-12-07T05:19:09;7.03;;;2.70;;
75847;SDS011;65750;47.540;19.090;2022-12-07T05:21:37;5.87;;;2.75;;
75847;SDS011;65750;47.540;19.090;2022-12-07T05:24:05;5.87;;;2.60;;
75847;SDS011;65750;47.540;19.090;2022-12-07T05:26:32;5.60;;;2.40;;
75847;SDS011;65750;47.540;19.090;2022-12-07T05:29:01;6.80;;;3.40;;
75847;SDS011;65750;47.540;19.090;2022-12-07T05:31:28;8.52;;;4.03;;
75847;SDS011;65750;47.540;19.090;2022-12-07T05:33:55;9.50;;;4.68;;
75847;SDS011;65750;47.540;19.090;2022-12-07T05:36:22;8.48;;;4.53;;
75847;SDS011;65750;47.540;19.090;2022-12-07T05:38:50;7.87;;;4.13;;
75847;SDS011;65750;47.540;19.090;2022-12-07T05:41:17;10.30;;;4.25;;
75847;SDS011;65750;47.540;19.090;2022-12-07T05:44:04;10.10;;;4.57;;
75847;SDS011;65750;47.540;19.090;2022-12-07T05:46:31;8.68;;;3.97;;
75847;SDS011;65750;47.540;19.090;2022-12-07T05:48:58;9.18;;;4.00;;
75847;SDS011;65750;47.540;19.090;2022-12-07T05:51:26;7.37;;;3.83;;
75847;SDS011;65750;47.540;19.090;2022-12-07T05:53:53;7.22;;;3.50;;
75847;SDS011;65750;47.540;19.090;2022-12-07T05:56:20;8.27;;;3.58;;
75847;SDS011;65750;47.540;19.090;2022-12-07T05:58:48;6.75;;;3.50;;
75847;SDS011;65750;47.540;19.090;2022-12-07T06:01:34;6.95;;;3.50;;
75847;SDS011;65750;47.540;19.090;2022-12-07T06:04:01;7.40;;;3.43;;
75847;SDS011;65750;47.540;19.090;2022-12-07T06:06:28;7.62;;;3.83;;
75847;SDS011;65750;47.540;19.090;2022-12-07T06:08:55;6.82;;;3.47;;
75847;SDS011;65750;47.540;19.090;2022-12-07T06:11:23;12.77;;;4.80;;
75847;SDS011;65750;47.540;19.090;2022-12-07T06:14:07;7.03;;;3.28;;
75847;SDS011;65750;47.540;19.090;2022-12-07T06:16:36;7.00;;;3.30;;
75847;SDS011;65750;47.540;19.090;2022-12-07T06:19:03;6.85;;;3.22;;
75847;SDS011;65750;47.540;19.090;2022-12-07T06:21:30;7.18;;;3.37;;
75847;SDS011;65750;47.540;19.090;2022-12-07T06:23:57;6.78;;;3.40;;
75847;SDS011;65750;47.540;19.090;2022-12-07T06:26:24;8.07;;;3.50;;
75847;SDS011;65750;47.540;19.090;2022-12-07T06:28:51;11.07;;;5.97;;
75847;SDS011;65750;47.540;19.090;2022-12-07T06:31:19;8.82;;;5.40;;
75847;SDS011;65750;47.540;19.090;2022-12-07T06:33:47;10.23;;;5.18;;
75847;SDS011;65750;47.540;19.090;2022-12-07T06:36:14;9.05;;;4.53;;
75847;SDS011;65750;47.540;19.090;2022-12-07T06:38:41;8.93;;;4.78;;
75847;SDS011;65750;47.540;19.090;2022-12-07T06:41:08;16.37;;;8.03;;
75847;SDS011;65750;47.540;19.090;2022-12-07T06:43:35;19.83;;;9.85;;
75847;SDS011;65750;47.540;19.090;2022-12-07T06:46:04;22.17;;;10.77;;
75847;SDS011;65750;47.540;19.090;2022-12-07T06:48:31;24.12;;;10.85;;
75847;SDS011;65750;47.540;19.090;2022-12-07T06:50:59;25.23;;;13.40;;
75847;SDS011;65750;47.540;19.090;2022-12-07T06:53:26;25.37;;;12.30;;
75847;SDS011;65750;47.540;19.090;2022-12-07T06:55:53;23.75;;;12.18;;
75847;SDS011;65750;47.540;19.090;2022-12-07T06:58:20;24.63;;;11.73;;
75847;SDS011;65750;47.540;19.090;2022-12-07T07:00:48;22.23;;;11.50;;
75847;SDS011;65750;47.540;19.090;2022-12-07T07:03:15;25.95;;;12.73;;
75847;SDS011;65750;47.540;19.090;2022-12-07T07:05:42;25.17;;;11.90;;
75847;SDS011;65750;47.540;19.090;2022-12-07T07:08:11;29.10;;;12.73;;
75847;SDS011;65750;47.540;19.090;2022-12-07T07:10:38;26.55;;;13.30;;
75847;SDS011;65750;47.540;19.090;2022-12-07T07:13:06;24.15;;;12.68;;
75847;SDS011;65750;47.540;19.090;2022-12-07T07:15:33;28.38;;;13.00;;
75847;SDS011;65750;47.540;19.090;2022-12-07T07:18:00;26.43;;;13.43;;
75847;SDS011;65750;47.540;19.090;2022-12-07T07:20:28;30.17;;;13.88;;
75847;SDS011;65750;47.540;19.090;2022-12-07T07:22:56;26.95;;;13.35;;
75847;SDS011;65750;47.540;19.090;2022-12-07T07:25:24;26.45;;;14.00;;
75847;SDS011;65750;47.540;19.090;2022-12-07T07:27:51;25.80;;;13.40;;
75847;SDS011;65750;47.540;19.090;2022-12-07T07:30:18;26.27;;;13.17;;
75847;SDS011;65750;47.540;19.090;2022-12-07T07:32:46;27.95;;;13.65;;
75847;SDS011;65750;47.540;19.090;2022-12-07T07:35:13;28.00;;;13.40;;
75847;SDS011;65750;47.540;19.090;2022-12-07T07:37:40;25.75;;;13.45;;
75847;SDS011;65750;47.540;19.090;2022-12-07T07:40:08;29.70;;;14.20;;
75847;SDS011;65750;47.540;19.090;2022-12-07T07:42:37;29.90;;;14.17;;
75847;SDS011;65750;47.540;19.090;2022-12-07T07:45:05;35.10;;;14.38;;
75847;SDS011;65750;47.540;19.090;2022-12-07T07:47:32;30.12;;;14.55;;
75847;SDS011;65750;47.540;19.090;2022-12-07T07:49:59;30.60;;;14.05;;
75847;SDS011;65750;47.540;19.090;2022-12-07T07:52:27;30.33;;;14.43;;
75847;SDS011;65750;47.540;19.090;2022-12-07T07:54:54;29.40;;;14.40;;
75847;SDS011;65750;47.540;19.090;2022-12-07T07:57:20;29.80;;;14.90;;
75847;SDS011;65750;47.540;19.090;2022-12-07T07:59:49;29.87;;;14.75;;
75847;SDS011;65750;47.540;19.090;2022-12-07T08:02:18;28.00;;;14.43;;
75847;SDS011;65750;47.540;19.090;2022-12-07T08:04:46;29.42;;;14.75;;
75847;SDS011;65750;47.540;19.090;2022-12-07T08:07:13;28.20;;;14.47;;
75847;SDS011;65750;47.540;19.090;2022-12-07T08:09:41;28.85;;;14.93;;
75847;SDS011;65750;47.540;19.090;2022-12-07T08:12:08;30.20;;;15.15;;
75847;SDS011;65750;47.540;19.090;2022-12-07T08:14:35;34.22;;;16.23;;
75847;SDS011;65750;47.540;19.090;2022-12-07T08:17:04;32.63;;;15.90;;
75847;SDS011;65750;47.540;19.090;2022-12-07T08:19:31;30.37;;;15.10;;
75847;SDS011;65750;47.540;19.090;2022-12-07T08:21:58;29.20;;;15.43;;
75847;SDS011;65750;47.540;19.090;2022-12-07T08:24:25;29.10;;;15.32;;
75847;SDS011;65750;47.540;19.090;2022-12-07T08:26:53;27.02;;;14.87;;
75847;SDS011;65750;47.540;19.090;2022-12-07T08:29:20;28.20;;;13.73;;
75847;SDS011;65750;47.540;19.090;2022-12-07T08:31:47;33.70;;;15.27;;
75847;SDS011;65750;47.540;19.090;2022-12-07T08:34:16;27.42;;;15.00;;
75847;SDS011;65750;47.540;19.090;2022-12-07T08:36:43;25.02;;;13.77;;
75847;SDS011;65750;47.540;19.090;2022-12-07T08:39:10;28.58;;;14.23;;
75847;SDS011;65750;47.540;19.090;2022-12-07T08:41:38;27.27;;;15.05;;
75847;SDS011;65750;47.540;19.090;2022-12-07T08:44:05;29.17;;;15.53;;
75847;SDS011;65750;47.540;19.090;2022-12-07T08:46:34;25.67;;;13.93;;
75847;SDS011;65750;47.540;19.090;2022-12-07T08:49:04;28.52;;;14.18;;
75847;SDS011;65750;47.540;19.090;2022-12-07T08:51:34;25.08;;;13.70;;
75847;SDS011;65750;47.540;19.090;2022-12-07T08:54:03;26.87;;;14.02;;
75847;SDS011;65750;47.540;19.090;2022-12-07T08:56:32;26.57;;;13.97;;
75847;SDS011;65750;47.540;19.090;2022-12-07T08:59:00;22.08;;;12.63;;
75847;SDS011;65750;47.540;19.090;2022-12-07T09:01:27;25.70;;;14.18;;
75847;SDS011;65750;47.540;19.090;2022-12-07T09:03:55;25.48;;;14.00;;
75847;SDS011;65750;47.540;19.090;2022-12-07T09:06:22;28.02;;;13.57;;
75847;SDS011;65750;47.540;19.090;2022-12-07T09:08:53;22.40;;;13.17;;
75847;SDS011;65750;47.540;19.090;2022-12-07T09:11:23;25.02;;;13.07;;
75847;SDS011;65750;47.540;19.090;2022-12-07T09:13:50;24.63;;;13.05;;
75847;SDS011;65750;47.540;19.090;2022-12-07T09:16:17;22.10;;;11.68;;
75847;SDS011;65750;47.540;19.090;2022-12-07T09:18:45;17.90;;;10.45;;
75847;SDS011;65750;47.540;19.090;2022-12-07T09:21:12;16.43;;;7.90;;
75847;SDS011;65750;47.540;19.090;2022-12-07T09:23:38;14.38;;;8.02;;
75847;SDS011;65750;47.540;19.090;2022-12-07T09:26:09;17.23;;;8.18;;
75847;SDS011;65750;47.540;19.090;2022-12-07T09:28:37;15.55;;;8.23;;
75847;SDS011;65750;47.540;19.090;2022-12-07T09:31:05;17.52;;;9.35;;
75847;SDS011;65750;47.540;19.090;2022-12-07T09:33:32;16.00;;;8.80;;
75847;SDS011;65750;47.540;19.090;2022-12-07T09:35:59;14.50;;;7.97;;
75847;SDS011;65750;47.540;19.090;2022-12-07T09:38:26;14.05;;;7.60;;
75847;SDS011;65750;47.540;19.090;2022-12-07T09:40:55;14.05;;;7.70;;
75847;SDS011;65750;47.540;19.090;2022-12-07T09:43:24;15.43;;;8.43;;
75847;SDS011;65750;47.540;19.090;2022-12-07T09:45:52;13.80;;;7.47;;
75847;SDS011;65750;47.540;19.090;2022-12-07T09:48:21;16.87;;;9.40;;
75847;SDS011;65750;47.540;19.090;2022-12-07T09:50:50;13.23;;;7.25;;
75847;SDS011;65750;47.540;19.090;2022-12-07T09:53:20;13.73;;;7.60;;
75847;SDS011;65750;47.540;19.090;2022-12-07T09:55:50;16.62;;;8.70;;
75847;SDS011;65750;47.540;19.090;2022-12-07T09:58:19;12.93;;;6.63;;
75847;SDS011;65750;47.540;19.090;2022-12-07T10:00:49;14.48;;;7.40;;
75847;SDS011;65750;47.540;19.090;2022-12-07T10:03:17;13.20;;;6.80;;
75847;SDS011;65750;47.540;19.090;2022-12-07T10:05:46;14.85;;;6.07;;
75847;SDS011;65750;47.540;19.090;2022-12-07T10:08:15;13.00;;;6.50;;
75847;SDS011;65750;47.540;19.090;2022-12-07T10:10:43;13.27;;;6.70;;
75847;SDS011;65750;47.540;19.090;2022-12-07T10:13:11;11.88;;;6.10;;
75847;SDS011;65750;47.540;19.090;2022-12-07T10:15:43;12.57;;;7.15;;
75847;SDS011;65750;47.540;19.090;2022-12-07T10:18:20;14.70;;;6.65;;
75847;SDS011;65750;47.540;19.090;2022-12-07T10:21:03;11.23;;;5.65;;
75847;SDS011;65750;47.540;19.090;2022-12-07T10:23:33;13.37;;;5.70;;
75847;SDS011;65750;47.540;19.090;2022-12-07T10:26:15;12.30;;;4.93;;
75847;SDS011;65750;47.540;19.090;2022-12-07T10:28:46;8.23;;;4.65;;
75847;SDS011;65750;47.540;19.090;2022-12-07T10:31:15;11.88;;;4.30;;
75847;SDS011;65750;47.540;19.090;2022-12-07T10:33:49;8.00;;;4.07;;
75847;SDS011;65750;47.540;19.090;2022-12-07T10:36:19;9.67;;;5.40;;
75847;SDS011;65750;47.540;19.090;2022-12-07T10:38:50;8.88;;;4.43;;
75847;SDS011;65750;47.540;19.090;2022-12-07T10:41:18;11.02;;;4.57;;
75847;SDS011;65750;47.540;19.090;2022-12-07T10:43:50;11.50;;;4.80;;
75847;SDS011;65750;47.540;19.090;2022-12-07T10:52:42;9.70;;;4.53;;
75847;SDS011;65750;47.540;19.090;2022-12-07T10:55:16;7.10;;;4.20;;
75847;SDS011;65750;47.540;19.090;2022-12-07T10:57:55;9.52;;;3.92;;
75847;SDS011;65750;47.540;19.090;2022-12-07T11:00:29;8.77;;;4.72;;
75847;SDS011;65750;47.540;19.090;2022-12-07T11:03:16;11.03;;;4.33;;
75847;SDS011;65750;47.540;19.090;2022-12-07T11:05:59;9.82;;;4.07;;
75847;SDS011;65750;47.540;19.090;2022-12-07T11:08:39;8.57;;;4.18;;
75847;SDS011;65750;47.540;19.090;2022-12-07T11:11:16;11.10;;;4.60;;
75847;SDS011;65750;47.540;19.090;2022-12-07T11:13:49;8.57;;;4.43;;
75847;SDS011;65750;47.540;19.090;2022-12-07T11:16:22;9.50;;;4.27;;
75847;SDS011;65750;47.540;19.090;2022-12-07T11:18:59;10.45;;;4.60;;
75847;SDS011;65750;47.540;19.090;2022-12-07T11:21:45;8.32;;;4.47;;
75847;SDS011;65750;47.540;19.090;2022-12-07T11:24:19;9.07;;;4.30;;
75847;SDS011;65750;47.540;19.090;2022-12-07T11:26:55;12.15;;;4.87;;
75847;SDS011;65750;47.540;19.090;2022-12-07T11:32:28;15.23;;;5.32;;
75847;SDS011;65750;47.540;19.090;2022-12-07T11:35:08;14.55;;;5.40;;
75847;SDS011;65750;47.540;19.090;2022-12-07T11:37:38;8.57;;;4.25;;
75847;SDS011;65750;47.540;19.090;2022-12-07T11:40:14;12.77;;;5.15;;
75847;SDS011;65750;47.540;19.090;2022-12-07T11:42:44;9.17;;;4.40;;
75847;SDS011;65750;47.540;19.090;2022-12-07T11:45:14;9.60;;;4.50;;
75847;SDS011;65750;47.540;19.090;2022-12-07T11:47:45;7.65;;;4.35;;
75847;SDS011;65750;47.540;19.090;2022-12-07T11:50:17;7.82;;;4.15;;
75847;SDS011;65750;47.540;19.090;2022-12-07T11:52:51;8.90;;;4.40;;
75847;SDS011;65750;47.540;19.090;2022-12-07T11:55:24;8.47;;;3.90;;
75847;SDS011;65750;47.540;19.090;2022-12-07T11:57:56;9.32;;;4.70;;
75847;SDS011;65750;47.540;19.090;2022-12-07T12:00:27;9.90;;;5.00;;
75847;SDS011;65750;47.540;19.090;2022-12-07T12:02:55;12.25;;;4.95;;
75847;SDS011;65750;47.540;19.090;2022-12-07T12:05:25;10.63;;;4.40;;
75847;SDS011;65750;47.540;19.090;2022-12-07T12:07:55;7.70;;;3.87;;
75847;SDS011;65750;47.540;19.090;2022-12-07T12:10:30;9.10;;;3.92;;
75847;SDS011;65750;47.540;19.090;2022-12-07T12:13:14;9.07;;;4.15;;
75847;SDS011;65750;47.540;19.090;2022-12-07T12:15:53;11.48;;;4.37;;
75847;SDS011;65750;47.540;19.090;2022-12-07T12:18:34;7.37;;;3.47;;
75847;SDS011;65750;47.540;19.090;2022-12-07T12:21:12;7.90;;;4.00;;
75847;SDS011;65750;47.540;19.090;2022-12-07T12:23:43;7.95;;;4.00;;
75847;SDS011;65750;47.540;19.090;2022-12-07T12:26:16;11.63;;;4.68;;
75847;SDS011;65750;47.540;19.090;2022-12-07T12:28:50;8.35;;;3.70;;
75847;SDS011;65750;47.540;19.090;2022-12-07T12:31:31;8.52;;;4.60;;
75847;SDS011;65750;47.540;19.090;2022-12-07T12:34:03;9.17;;;4.77;;
75847;SDS011;65750;47.540;19.090;2022-12-07T12:36:44;9.48;;;4.62;;
75847;SDS011;65750;47.540;19.090;2022-12-07T12:39:13;9.98;;;5.30;;
75847;SDS011;65750;47.540;19.090;2022-12-07T12:41:53;10.65;;;5.30;;
75847;SDS011;65750;47.540;19.090;2022-12-07T12:44:40;10.65;;;4.57;;
75847;SDS011;65750;47.540;19.090;2022-12-07T12:50:15;11.73;;;5.00;;
75847;SDS011;65750;47.540;19.090;2022-12-07T12:52:55;11.12;;;4.87;;
75847;SDS011;65750;47.540;19.090;2022-12-07T12:58:25;11.65;;;5.25;;
75847;SDS011;65750;47.540;19.090;2022-12-07T13:07:04;12.68;;;4.95;;
75847;SDS011;65750;47.540;19.090;2022-12-07T13:09:37;8.52;;;4.40;;
75847;SDS011;65750;47.540;19.090;2022-12-07T13:12:12;9.50;;;3.83;;
75847;SDS011;65750;47.540;19.090;2022-12-07T13:20:43;7.57;;;3.50;;
75847;SDS011;65750;47.540;19.090;2022-12-07T13:23:21;14.48;;;6.18;;
75847;SDS011;65750;47.540;19.090;2022-12-07T13:28:43;7.90;;;3.27;;
75847;SDS011;65750;47.540;19.090;2022-12-07T13:34:01;7.85;;;3.90;;
75847;SDS011;65750;47.540;19.090;2022-12-07T13:36:32;10.15;;;3.80;;
75847;SDS011;65750;47.540;19.090;2022-12-07T13:39:10;10.20;;;3.83;;
75847;SDS011;65750;47.540;19.090;2022-12-07T13:41:42;13.40;;;4.20;;
75847;SDS011;65750;47.540;19.090;2022-12-07T13:44:10;7.75;;;4.07;;
75847;SDS011;65750;47.540;19.090;2022-12-07T13:46:44;10.38;;;4.50;;
75847;SDS011;65750;47.540;19.090;2022-12-07T13:49:16;9.38;;;4.60;;
75847;SDS011;65750;47.540;19.090;2022-12-07T13:51:47;11.48;;;4.50;;
75847;SDS011;65750;47.540;19.090;2022-12-07T13:54:16;9.80;;;5.47;;
75847;SDS011;65750;47.540;19.090;2022-12-07T13:56:47;12.80;;;5.07;;
75847;SDS011;65750;47.540;19.090;2022-12-07T13:59:17;12.48;;;5.28;;
75847;SDS011;65750;47.540;19.090;2022-12-07T14:01:47;10.48;;;5.30;;
75847;SDS011;65750;47.540;19.090;2022-12-07T14:04:19;10.18;;;5.20;;
75847;SDS011;65750;47.540;19.090;2022-12-07T14:06:57;10.87;;;4.70;;
75847;SDS011;65750;47.540;19.090;2022-12-07T14:09:25;11.15;;;5.10;;
75847;SDS011;65750;47.540;19.090;2022-12-07T14:11:53;11.63;;;5.20;;
75847;SDS011;65750;47.540;19.090;2022-12-07T14:14:22;10.07;;;4.50;;
75847;SDS011;65750;47.540;19.090;2022-12-07T14:16:57;10.65;;;4.97;;
75847;SDS011;65750;47.540;19.090;2022-12-07T14:22:23;66.75;;;17.02;;
75847;SDS011;65750;47.540;19.090;2022-12-07T14:24:59;19.23;;;6.37;;
75847;SDS011;65750;47.540;19.090;2022-12-07T14:27:47;13.55;;;5.40;;
75847;SDS011;65750;47.540;19.090;2022-12-07T14:30:16;9.32;;;5.07;;
75847;SDS011;65750;47.540;19.090;2022-12-07T14:32:46;12.33;;;5.83;;
75847;SDS011;65750;47.540;19.090;2022-12-07T14:35:16;13.02;;;5.78;;
75847;SDS011;65750;47.540;19.090;2022-12-07T14:37:45;18.60;;;6.28;;
75847;SDS011;65750;47.540;19.090;2022-12-07T14:40:14;16.48;;;5.90;;
75847;SDS011;65750;47.540;19.090;2022-12-07T14:42:43;15.13;;;6.20;;
75847;SDS011;65750;47.540;19.090;2022-12-07T14:45:15;15.80;;;7.20;;
75847;SDS011;65750;47.540;19.090;2022-12-07T14:47:43;17.77;;;7.85;;
75847;SDS011;65750;47.540;19.090;2022-12-07T14:50:13;15.95;;;6.62;;
75847;SDS011;65750;47.540;19.090;2022-12-07T14:52:42;13.18;;;5.70;;
75847;SDS011;65750;47.540;19.090;2022-12-07T14:55:14;13.15;;;5.97;;
75847;SDS011;65750;47.540;19.090;2022-12-07T14:57:43;14.80;;;5.43;;
75847;SDS011;65750;47.540;19.090;2022-12-07T15:00:13;14.80;;;6.62;;
75847;SDS011;65750;47.540;19.090;2022-12-07T15:02:42;35.78;;;11.40;;
75847;SDS011;65750;47.540;19.090;2022-12-07T15:05:10;13.38;;;6.07;;
75847;SDS011;65750;47.540;19.090;2022-12-07T15:07:38;11.12;;;5.87;;
75847;SDS011;65750;47.540;19.090;2022-12-07T15:10:08;44.53;;;17.50;;
75847;SDS011;65750;47.540;19.090;2022-12-07T15:12:40;26.67;;;10.45;;
75847;SDS011;65750;47.540;19.090;2022-12-07T15:15:07;35.83;;;13.07;;